Munds Park, AZ (86017)

8:53 AM MST on December 03, 2016 (GMT -0700)
| | Change Station

Elev -9999 ft 0.00 °N, 0.00 °E | Updated

Clear
Clear
33 °F
Feels Like 23 °F
N
18
Wind Variable Wind from NE
Gusts 27 mph

Today
High -- | Low -- °F
--% Chance of Precip.
Yesterday
High -- | Low -- °F
Precip. -- in
Pressure 30.06 in
Visibility 10.0 miles
Clouds Clear
Windchill 23 °F
Dew Point 22 °F
Humidity 63%
Rainfall --
Snow Depth Not available.
7:18 AM 5:14 PM
Waxing Crescent, 15% visible
METAR KSEZ 031535Z AUTO 04006KT 10SM CLR 04/M07 A3006 RMK AO2
Pressure 30.06 in
Visibility 10.0 miles
Clouds Clear
Windchill 23 °F
Dew Point 22 °F
Humidity 63%
Rainfall --
Snow Depth Not available.
7:18 AM 5:14 PM
Waxing Crescent, 15% visible
METAR KSEZ 031535Z AUTO 04006KT 10SM CLR 04/M07 A3006 RMK AO2

10-Day Weather Forecast

Almanac

Astronomy

Dec. 03, 2016 Rise Set
Actual Time
Civil Twilight
Nautical Twilight
Astronomical Twilight
Moon
Length of Visible Light
Length of Day
Tomorrow will be .
, % of the Moon is Illuminated

Today's Extremes

State Highs State Lows

Community

WunderPhotos

Upload Photos

1,955,427 photos uploaded!

WunderBlog® & News

Nearby

Air Quality

  Air Quality AQ Index Pollutant
Not available.

Snow Depth

Station Depth Elevation

Earthquake Activity

City Distance Mag. Time & Date
Minimum magnitude displayed is 2.5.

Coastal Water Temperatures

Place Temperature

Stations

Nearby Weather Stations

Station Location Temp. Windchill Dew Point Humidity Wind Precip. Elev Updated Type
                   

Watches & Warnings

There are currently no watches in effect.